»·PEaware :: N478JT WA84-KPUW

N478JT :: WA84-KPUW

FLIGHT INFORMATION

Flight Status: Arrived
Operator: Privately registered:
United States
More flights under this callsign
Pilot: Alex K. (14822)
Aircraft: CESSNA 404 TITAN
(C404)
More flights by this aircraft type
Origin: WA84 Auburn Academy
United States
Destination: KPUW Pullman/Moscow Regl
United States
More flights between these airports :: More routes between these airports
Route:
File this flight plan on PilotEdge
Remarks: Radio Check
Altitude:
(Current/Filed)
11,500ft
Speed:
(Current/Filed)
200kts
Departed: 04-Oct-17 10:22 AM
Arrived: 04-Oct-17 11:44 AM
Distance/Time
Traveled:
209nm/1:22
Distance/Time
To Go:
Arrived

Flight Plot

Page will automatically refresh every two minutes.

Flight plan parsing failed; only flown route is shown


Map Options




Map Legend


Flown Route
Filed Route
Departure Airport
Arrival Airport
Navaid (VOR, NDB)
Fix

Horizontal Profiles

Position Reports

Time Latitude Longitude Heading Altitude Ground
Speed
04-Oct-17 10:24 47.280649 -122.149565 0 408ft 0kts
04-Oct-17 10:25 47.280166 -122.147753 110 412ft 14kts
04-Oct-17 10:26 47.280485 -122.148762 291 426ft 97kts
04-Oct-17 10:27 47.304658 -122.140963 96 1820ft 168kts
04-Oct-17 10:28 47.293861 -122.077297 92 3358ft 164kts
04-Oct-17 10:29 47.289632 -122.011007 95 4922ft 162kts
04-Oct-17 10:30 47.283667 -121.941019 96 4877ft 173kts
04-Oct-17 10:31 47.277921 -121.877234 96 6192ft 143kts
04-Oct-17 10:32 47.272901 -121.821564 96 7748ft 136kts
04-Oct-17 10:42 47.265253 -121.739633 93 9986ft 124kts
04-Oct-17 10:43 47.260870 -121.691311 92 11312ft 118kts
04-Oct-17 10:44 47.255559 -121.631182 93 11458ft 172kts
04-Oct-17 10:45 47.248854 -121.559419 93 11453ft 181kts
04-Oct-17 10:46 47.241950 -121.484091 97 11456ft 190kts
04-Oct-17 10:47 47.234441 -121.408209 93 11453ft 183kts
04-Oct-17 10:48 47.227652 -121.332878 98 11457ft 190kts
04-Oct-17 10:49 47.219720 -121.255623 93 11458ft 188kts
04-Oct-17 10:50 47.212778 -121.180495 94 11456ft 185kts
04-Oct-17 10:51 47.205547 -121.105909 94 11456ft 185kts
04-Oct-17 10:52 47.198269 -121.031391 94 11456ft 185kts
04-Oct-17 10:53 47.190940 -120.956881 94 11456ft 185kts
04-Oct-17 10:54 47.183528 -120.882086 94 11456ft 185kts
04-Oct-17 10:55 47.176084 -120.807487 94 11456ft 185kts
04-Oct-17 10:56 47.168601 -120.732974 94 11456ft 185kts
04-Oct-17 10:57 47.161041 -120.658147 94 11455ft 185kts
04-Oct-17 10:58 47.153432 -120.583377 94 11455ft 185kts
04-Oct-17 10:59 47.145859 -120.508504 94 11453ft 187kts
04-Oct-17 11:00 47.138198 -120.432962 96 11453ft 190kts
04-Oct-17 11:01 47.129575 -120.355160 94 11484ft 194kts
04-Oct-17 11:02 47.121755 -120.276502 96 11482ft 198kts
04-Oct-17 11:03 47.113304 -120.195263 99 11482ft 203kts
04-Oct-17 11:04 47.103915 -120.111734 94 11486ft 208kts
04-Oct-17 11:05 47.095536 -120.030502 94 11483ft 193kts
04-Oct-17 11:06 47.087393 -119.954184 95 11458ft 184kts
04-Oct-17 11:07 47.079567 -119.881653 95 11455ft 178kts
04-Oct-17 11:08 47.071754 -119.810112 95 11454ft 176kts
04-Oct-17 11:09 47.063937 -119.738758 95 11455ft 177kts
04-Oct-17 11:10 47.056099 -119.667655 95 11455ft 177kts
04-Oct-17 11:11 47.048176 -119.596188 95 11454ft 177kts
04-Oct-17 11:12 47.040093 -119.523571 95 11249ft 181kts
04-Oct-17 11:13 47.031996 -119.451474 95 11238ft 177kts
04-Oct-17 11:14 47.023975 -119.380359 95 11238ft 177kts
04-Oct-17 11:15 47.015936 -119.309565 96 11240ft 177kts
04-Oct-17 11:16 47.007811 -119.238341 96 11241ft 177kts
04-Oct-17 11:17 46.999627 -119.167059 96 11241ft 177kts
04-Oct-17 11:18 46.991396 -119.095739 96 11240ft 177kts
04-Oct-17 11:19 46.983113 -119.024418 96 11240ft 177kts
04-Oct-17 11:20 46.974772 -118.952948 96 11240ft 177kts
04-Oct-17 11:21 46.966420 -118.881810 96 11240ft 177kts
04-Oct-17 11:22 46.958035 -118.810752 96 11240ft 177kts
04-Oct-17 11:23 46.949586 -118.739530 96 11239ft 177kts
04-Oct-17 11:24 46.941084 -118.668290 96 11239ft 177kts
04-Oct-17 11:25 46.932559 -118.597219 96 11239ft 177kts
04-Oct-17 11:26 46.923975 -118.526102 96 11238ft 177kts
04-Oct-17 11:27 46.915385 -118.455334 96 11238ft 177kts
04-Oct-17 11:28 46.906748 -118.384573 96 11238ft 177kts
04-Oct-17 11:29 46.898180 -118.314759 97 11240ft 177kts
04-Oct-17 11:30 46.889410 -118.243607 97 11239ft 177kts
04-Oct-17 11:31 46.880625 -118.172698 97 11239ft 177kts
04-Oct-17 11:32 46.871769 -118.101642 97 11239ft 177kts
04-Oct-17 11:33 46.862929 -118.031089 97 11238ft 175kts
04-Oct-17 11:34 46.854156 -117.961340 97 11238ft 174kts
04-Oct-17 11:35 46.845327 -117.891532 97 11238ft 174kts
04-Oct-17 11:36 46.836470 -117.821922 97 11238ft 175kts
04-Oct-17 11:37 46.827896 -117.752690 96 10312ft 171kts
04-Oct-17 11:38 46.819179 -117.684808 96 9286ft 170kts
04-Oct-17 11:39 46.810379 -117.616634 96 8280ft 173kts
04-Oct-17 11:40 46.801408 -117.547390 95 7291ft 175kts
04-Oct-17 11:41 46.792241 -117.476985 95 6355ft 178kts
04-Oct-17 11:42 46.782855 -117.405307 96 5424ft 181kts
04-Oct-17 11:43 46.766304 -117.335983 106 4676ft 176kts
04-Oct-17 11:44 46.752093 -117.275619 101 4704ft 144kts
04-Oct-17 11:45 46.741467 -117.223371 101 4718ft 117kts
04-Oct-17 11:46 46.733636 -117.178419 90 4219ft 107kts
04-Oct-17 11:47 46.737017 -117.136388 63 3204ft 104kts
04-Oct-17 11:48 46.744069 -117.108765 69 2542ft 20kts
04-Oct-17 11:49 46.745338 -117.107487 65 2546ft 0kts

Navigation Log

Ident Type
Flight plan parsing failed, navigation log unavailable